createdAt,value
2019-04-14T00:05:14.981Z,17.00
2019-04-14T00:07:47.157Z,17.10
2019-04-14T00:10:18.229Z,17.10
2019-04-14T00:12:49.215Z,17.00
2019-04-14T00:15:29.342Z,17.00
2019-04-14T00:17:50.857Z,17.00
2019-04-14T00:20:20.777Z,17.00
2019-04-14T00:22:51.218Z,16.90
2019-04-14T00:25:21.629Z,16.80
2019-04-14T00:27:52.175Z,16.80
2019-04-14T00:30:23.022Z,16.80
2019-04-14T00:32:58.018Z,16.90
2019-04-14T00:35:36.447Z,16.90
2019-04-14T00:38:21.656Z,16.90
2019-04-14T00:41:13.601Z,16.90
2019-04-14T00:43:46.030Z,16.90
2019-04-14T00:46:35.270Z,16.90
2019-04-14T00:49:05.536Z,16.80
2019-04-14T00:51:38.279Z,16.90
2019-04-14T00:54:06.946Z,16.80
2019-04-14T00:56:36.933Z,16.80
2019-04-14T00:59:07.110Z,16.80
2019-04-14T01:01:37.239Z,16.80
2019-04-14T01:04:07.691Z,16.80
2019-04-14T01:06:38.268Z,16.80
2019-04-14T01:09:10.764Z,16.80
2019-04-14T01:11:40.582Z,16.80
2019-04-14T01:14:10.401Z,16.80
2019-04-14T01:16:40.834Z,16.80
2019-04-14T01:19:11.245Z,16.90
2019-04-14T01:21:41.356Z,16.80
2019-04-14T01:24:12.063Z,16.60
2019-04-14T01:26:42.103Z,16.60
2019-04-14T01:29:12.304Z,16.60
2019-04-14T01:31:42.491Z,16.60
2019-04-14T01:34:12.965Z,16.60
2019-04-14T01:36:43.195Z,16.60
2019-04-14T01:39:15.376Z,16.50
2019-04-14T01:41:45.656Z,16.40
2019-04-14T01:44:15.668Z,16.40
2019-04-14T01:46:45.660Z,16.40
2019-04-14T01:49:15.758Z,16.30
2019-04-14T01:51:48.370Z,16.30
2019-04-14T01:54:19.949Z,16.30
2019-04-14T01:56:58.114Z,16.40
2019-04-14T01:59:28.446Z,16.30
2019-04-14T02:02:00.765Z,16.40
2019-04-14T02:04:31.275Z,16.40
2019-04-14T02:07:02.283Z,16.50
2019-04-14T02:09:32.100Z,16.50
2019-04-14T02:12:01.926Z,16.50
2019-04-14T02:14:32.817Z,16.50
2019-04-14T02:17:04.330Z,16.50
2019-04-14T02:19:34.943Z,16.60
2019-04-14T02:22:05.147Z,16.60
2019-04-14T02:24:35.256Z,16.60
2019-04-14T02:27:05.608Z,16.70
2019-04-14T02:29:36.218Z,16.70
2019-04-14T02:35:03.067Z,16.80
2019-04-14T02:40:39.316Z,16.80
2019-04-14T02:42:54.378Z,16.90
2019-04-14T02:45:40.783Z,16.90
2019-04-14T02:48:18.358Z,16.90
2019-04-14T02:50:30.287Z,16.90
2019-04-14T02:53:07.392Z,17.00
2019-04-14T02:58:10.289Z,16.80
2019-04-14T03:00:41.815Z,16.80
2019-04-14T03:03:16.052Z,16.70
2019-04-14T03:05:44.756Z,16.70
2019-04-14T03:08:17.522Z,16.60
2019-04-14T03:15:47.896Z,16.60
2019-04-14T03:18:37.851Z,16.60
2019-04-14T03:21:30.793Z,16.60
2019-04-14T03:23:53.333Z,16.60
2019-04-14T03:26:35.213Z,16.50
2019-04-14T03:29:26.759Z,16.40
2019-04-14T03:37:18.852Z,16.50
2019-04-14T03:39:46.643Z,16.50
2019-04-14T03:42:12.790Z,16.50
2019-04-14T03:44:42.034Z,16.60
2019-04-14T03:49:52.887Z,16.50
2019-04-14T03:52:31.636Z,16.50
2019-04-14T03:54:36.085Z,16.50
2019-04-14T03:56:49.654Z,16.40
2019-04-14T03:59:19.854Z,16.30
2019-04-14T04:01:50.066Z,16.40
2019-04-14T04:04:20.594Z,16.40
2019-04-14T04:06:50.992Z,16.30
2019-04-14T04:09:23.523Z,16.20
2019-04-14T04:11:54.133Z,16.20
2019-04-14T04:14:24.597Z,16.20
2019-04-14T04:19:53.415Z,16.00
2019-04-14T04:22:31.107Z,15.90
2019-04-14T04:25:02.960Z,15.80
2019-04-14T04:30:22.970Z,15.70
2019-04-14T04:33:11.127Z,15.80
2019-04-14T04:35:48.581Z,15.80
2019-04-14T04:38:20.174Z,15.90
2019-04-14T04:40:50.757Z,16.00
2019-04-14T04:43:21.142Z,16.10
2019-04-14T04:45:51.671Z,16.20
2019-04-14T04:48:21.836Z,16.20
2019-04-14T04:50:51.973Z,16.20
2019-04-14T04:53:22.331Z,16.30
2019-04-14T04:55:52.492Z,16.20
2019-04-14T04:58:22.618Z,16.30
2019-04-14T05:00:54.314Z,16.40
2019-04-14T05:03:25.336Z,16.40
2019-04-14T05:09:29.499Z,16.40
2019-04-14T05:12:13.420Z,16.40
2019-04-14T05:14:45.612Z,16.40
2019-04-14T05:17:17.129Z,16.40
2019-04-14T05:19:47.557Z,16.30
2019-04-14T05:22:19.190Z,16.30
2019-04-14T05:24:48.889Z,16.30
2019-04-14T05:27:18.950Z,16.20
2019-04-14T05:29:49.391Z,16.20
2019-04-14T05:32:19.466Z,16.20
2019-04-14T05:34:50.166Z,16.10
2019-04-14T05:37:20.390Z,16.10
2019-04-14T05:39:50.521Z,16.10
2019-04-14T05:42:24.359Z,16.10
2019-04-14T05:44:51.920Z,16.10
2019-04-14T05:47:21.862Z,16.10
2019-04-14T05:49:54.660Z,16.00
2019-04-14T05:52:23.485Z,16.00
2019-04-14T05:54:53.645Z,15.90
2019-04-14T05:57:24.187Z,15.90
2019-04-14T05:59:54.801Z,15.90
2019-04-14T06:02:28.945Z,15.90
2019-04-14T06:04:59.321Z,15.90
2019-04-14T06:07:29.281Z,15.90
2019-04-14T06:09:59.113Z,15.90
2019-04-14T06:12:28.938Z,15.90
2019-04-14T06:14:58.790Z,16.00
2019-04-14T06:17:29.025Z,16.00
2019-04-14T06:19:58.840Z,16.00
2019-04-14T06:22:28.738Z,16.00
2019-04-14T06:24:58.657Z,15.90
2019-04-14T06:27:28.486Z,15.90
2019-04-14T06:30:00.305Z,15.90
2019-04-14T06:32:41.060Z,16.00
2019-04-14T06:35:21.720Z,15.90
2019-04-14T06:37:53.258Z,15.80
2019-04-14T06:40:24.754Z,15.70
2019-04-14T06:42:54.573Z,15.60
2019-04-14T06:45:24.409Z,15.70
2019-04-14T06:47:54.235Z,15.70
2019-04-14T06:50:24.404Z,15.80
2019-04-14T06:52:54.289Z,15.80
2019-04-14T06:55:24.475Z,15.90
2019-04-14T06:57:54.298Z,16.00
2019-04-14T07:01:00.213Z,16.10
2019-04-14T07:03:30.033Z,16.00
2019-04-14T07:06:00.204Z,16.10
2019-04-14T07:08:30.082Z,15.30
2019-04-14T07:10:59.910Z,14.70
2019-04-14T07:13:29.818Z,14.20
2019-04-14T07:15:59.622Z,13.60
2019-04-14T07:18:29.450Z,13.30
2019-04-14T07:20:59.631Z,13.10
2019-04-14T07:23:29.458Z,13.20
2019-04-14T07:25:59.277Z,13.20
2019-04-14T07:28:29.386Z,13.20
2019-04-14T07:31:03.687Z,13.20
2019-04-14T07:33:51.326Z,13.10
2019-04-14T07:36:32.799Z,13.20
2019-04-14T07:39:20.431Z,13.10
2019-04-14T07:42:08.376Z,13.10
2019-04-14T07:44:57.218Z,13.10
2019-04-14T07:47:37.803Z,13.20
2019-04-14T07:50:15.585Z,13.10
2019-04-14T07:53:04.375Z,13.10
2019-04-14T07:55:48.303Z,13.20
2019-04-14T07:58:35.981Z,13.20
2019-04-14T08:04:14.878Z,13.10
2019-04-14T08:06:46.729Z,13.10
2019-04-14T08:09:16.553Z,13.30
2019-04-14T08:11:46.449Z,13.30
2019-04-14T08:14:17.907Z,13.40
2019-04-14T08:16:47.806Z,13.40
2019-04-14T08:19:17.633Z,13.40
2019-04-14T08:21:48.529Z,13.30
2019-04-14T08:24:18.646Z,13.40
2019-04-14T08:26:48.776Z,13.30
2019-04-14T08:29:18.588Z,13.30
2019-04-14T08:31:48.485Z,13.40
2019-04-14T08:34:18.375Z,13.50
2019-04-14T08:36:50.257Z,13.20
2019-04-14T08:39:20.086Z,13.10
2019-04-14T08:41:51.550Z,13.10
2019-04-14T08:44:29.110Z,13.20
2019-04-14T08:47:09.586Z,13.20
2019-04-14T08:49:41.067Z,13.30
2019-04-14T08:52:28.731Z,13.30
2019-04-14T08:55:19.772Z,13.50
2019-04-14T08:58:04.311Z,13.50
2019-04-14T09:00:42.298Z,13.40
2019-04-14T09:03:29.948Z,13.50
2019-04-14T09:06:07.291Z,13.50
2019-04-14T09:08:47.595Z,13.50
2019-04-14T09:11:19.048Z,13.50
2019-04-14T09:13:48.890Z,13.40
2019-04-14T09:16:18.714Z,13.40
2019-04-14T09:18:48.550Z,13.40
2019-04-14T09:21:18.677Z,13.20
2019-04-14T09:23:48.538Z,13.20
2019-04-14T09:26:18.525Z,13.20
2019-04-14T09:28:48.731Z,13.10
2019-04-14T09:31:18.627Z,13.20
2019-04-14T09:33:48.770Z,13.20
2019-04-14T09:36:19.594Z,13.20
2019-04-14T09:38:49.422Z,13.00
2019-04-14T09:41:19.251Z,12.90
2019-04-14T09:43:49.070Z,13.10
2019-04-14T09:46:18.894Z,13.20
2019-04-14T09:48:48.789Z,13.30
2019-04-14T09:51:18.604Z,13.40
2019-04-14T09:53:48.492Z,13.40
2019-04-14T09:56:18.327Z,13.20
2019-04-14T09:58:48.154Z,13.20
2019-04-14T10:01:18.116Z,13.30
2019-04-14T10:03:48.005Z,13.30
2019-04-14T10:06:17.871Z,13.40
2019-04-14T10:08:47.768Z,13.50
2019-04-14T10:11:17.589Z,13.70
2019-04-14T10:13:47.468Z,13.70
2019-04-14T10:16:17.766Z,13.70
2019-04-14T10:18:48.653Z,13.80
2019-04-14T10:21:18.470Z,13.90
2019-04-14T10:23:48.289Z,13.90
2019-04-14T10:26:18.186Z,14.00
2019-04-14T10:28:50.634Z,14.20
2019-04-14T10:31:19.768Z,14.30
2019-04-14T10:33:49.594Z,14.10
2019-04-14T10:36:19.406Z,14.10
2019-04-14T10:38:49.233Z,14.40
2019-04-14T10:41:19.110Z,14.40
2019-04-14T10:43:49.105Z,14.70
2019-04-14T10:46:19.277Z,15.00
2019-04-14T10:48:49.102Z,15.00
2019-04-14T10:51:29.432Z,15.10
2019-04-14T10:53:50.434Z,15.10
2019-04-14T10:56:20.253Z,15.00
2019-04-14T10:58:50.147Z,15.00
2019-04-14T11:01:20.030Z,14.90
2019-04-14T11:03:50.384Z,14.80
2019-04-14T11:06:44.282Z,14.60
2019-04-14T11:09:16.806Z,14.40
2019-04-14T11:11:46.622Z,14.20
2019-04-14T11:14:16.794Z,14.40
2019-04-14T11:16:46.612Z,14.30
2019-04-14T11:19:16.433Z,14.20
2019-04-14T11:21:46.313Z,14.10
2019-04-14T11:24:16.129Z,14.10
2019-04-14T11:26:45.941Z,14.10
2019-04-14T11:29:15.754Z,14.10
2019-04-14T11:31:56.025Z,14.50
2019-04-14T11:34:39.875Z,14.60
2019-04-14T11:37:14.094Z,14.80
2019-04-14T11:39:45.583Z,15.00
2019-04-14T11:42:15.389Z,15.30
2019-04-14T11:44:45.381Z,15.30
2019-04-14T11:47:16.424Z,15.10
2019-04-14T11:49:46.336Z,15.00
2019-04-14T11:52:16.493Z,14.60
2019-04-14T11:54:46.298Z,14.30
2019-04-14T11:57:16.174Z,14.10
2019-04-14T11:59:56.712Z,14.10
2019-04-14T12:02:39.949Z,14.20
2019-04-14T12:05:20.434Z,14.30
2019-04-14T12:07:58.134Z,14.50
2019-04-14T12:10:28.313Z,14.50
2019-04-14T12:12:58.130Z,14.50
2019-04-14T12:15:28.374Z,14.50
2019-04-14T12:17:58.195Z,14.60
2019-04-14T12:20:28.008Z,14.80
2019-04-14T12:22:57.821Z,14.60
2019-04-14T12:25:27.939Z,14.40
2019-04-14T12:27:57.985Z,14.60
2019-04-14T12:30:29.025Z,14.50
2019-04-14T12:32:58.936Z,14.50
2019-04-14T12:35:28.747Z,14.60
2019-04-14T12:37:58.561Z,14.60
2019-04-14T12:40:28.365Z,14.80
2019-04-14T12:43:16.358Z,14.90
2019-04-14T12:45:51.494Z,14.90
2019-04-14T12:48:26.688Z,14.80
2019-04-14T12:53:52.701Z,14.80
2019-04-14T12:56:25.582Z,15.00
2019-04-14T13:01:56.962Z,15.00
2019-04-14T13:04:26.783Z,15.00
2019-04-14T13:06:56.591Z,14.90
2019-04-14T13:09:28.338Z,14.80
2019-04-14T13:11:58.216Z,14.80
2019-04-14T13:14:28.020Z,14.80
2019-04-14T13:16:57.907Z,14.80
2019-04-14T13:19:27.717Z,14.70
2019-04-14T13:21:57.602Z,14.80
2019-04-14T13:24:27.407Z,15.00
2019-04-14T13:26:57.213Z,15.00
2019-04-14T13:29:27.057Z,15.00
2019-04-14T13:31:56.936Z,15.10
2019-04-14T13:34:27.072Z,15.20
2019-04-14T13:36:56.894Z,15.20
2019-04-14T13:39:26.708Z,15.20
2019-04-14T13:41:56.585Z,15.10
2019-04-14T13:44:26.377Z,15.10
2019-04-14T13:46:56.199Z,15.20
2019-04-14T13:49:26.005Z,15.30
2019-04-14T13:51:56.887Z,15.30
2019-04-14T13:54:26.698Z,15.30
2019-04-14T13:56:56.506Z,15.40
2019-04-14T13:59:26.951Z,15.40
2019-04-14T14:01:58.666Z,15.40
2019-04-14T14:04:28.554Z,15.40
2019-04-14T14:06:58.843Z,15.40
2019-04-14T14:09:28.730Z,15.40
2019-04-14T14:12:09.322Z,15.40
2019-04-14T14:14:50.330Z,15.40
2019-04-14T14:17:21.789Z,15.30
2019-04-14T14:19:55.923Z,15.40
2019-04-14T14:22:30.486Z,15.40
2019-04-14T14:25:01.932Z,15.40
2019-04-14T14:27:31.845Z,15.30
2019-04-14T14:30:01.657Z,15.30
2019-04-14T14:32:33.177Z,15.30
2019-04-14T14:35:02.990Z,15.40
2019-04-14T14:37:32.801Z,15.40
2019-04-14T14:40:02.681Z,15.30
2019-04-14T14:42:32.477Z,15.40
2019-04-14T14:45:03.925Z,15.40
2019-04-14T14:47:35.005Z,15.40
2019-04-14T14:50:17.051Z,15.50
2019-04-14T14:52:46.861Z,15.50
2019-04-14T14:55:16.674Z,15.60
2019-04-14T14:57:46.486Z,15.70
2019-04-14T15:00:29.935Z,15.70
2019-04-14T15:02:59.847Z,15.70
2019-04-14T15:05:29.624Z,15.60
2019-04-14T15:07:59.434Z,15.50
2019-04-14T15:10:30.806Z,15.50
2019-04-14T15:13:00.614Z,15.40
2019-04-14T15:15:30.425Z,15.50
2019-04-14T15:18:00.241Z,15.40
2019-04-14T15:20:30.051Z,15.40
2019-04-14T15:22:59.861Z,15.40
2019-04-14T15:25:29.677Z,15.40
2019-04-14T15:27:59.549Z,15.30
2019-04-14T15:30:30.513Z,15.30
2019-04-14T15:33:00.318Z,15.30
2019-04-14T15:35:30.137Z,15.20
2019-04-14T15:37:59.950Z,15.20
2019-04-14T15:40:29.771Z,15.20
2019-04-14T15:42:59.590Z,15.20
2019-04-14T15:45:29.427Z,15.20
2019-04-14T15:47:59.224Z,15.20
2019-04-14T15:50:29.122Z,15.20
2019-04-14T15:52:58.926Z,15.20
2019-04-14T15:55:28.730Z,15.20
2019-04-14T16:00:40.373Z,15.20
2019-04-14T16:03:20.917Z,15.20
2019-04-14T16:06:10.394Z,15.30
2019-04-14T16:08:42.172Z,15.30
2019-04-14T16:11:31.690Z,15.20
2019-04-14T16:14:03.202Z,15.10
2019-04-14T16:16:50.741Z,15.10
2019-04-14T16:19:22.258Z,15.00
2019-04-14T16:21:52.067Z,15.10
2019-04-14T16:24:21.880Z,15.10
2019-04-14T16:26:59.407Z,15.10
2019-04-14T16:29:30.920Z,15.10
2019-04-14T16:32:11.516Z,15.20
2019-04-14T16:34:43.021Z,15.10
2019-04-14T16:37:12.893Z,15.20
2019-04-14T16:39:42.778Z,15.20
2019-04-14T16:42:12.653Z,15.20
2019-04-14T16:44:42.530Z,15.30
2019-04-14T16:47:12.342Z,15.30
2019-04-14T16:49:42.227Z,15.30
2019-04-14T16:52:13.739Z,15.30
2019-04-14T16:54:48.006Z,15.30
2019-04-14T16:57:22.376Z,15.30
2019-04-14T16:59:51.564Z,15.30
2019-04-14T17:02:21.354Z,15.20
2019-04-14T17:04:52.340Z,15.30
2019-04-14T17:07:23.318Z,15.20
2019-04-14T17:09:53.143Z,15.30
2019-04-14T17:12:23.013Z,15.20
2019-04-14T17:14:54.474Z,15.30
2019-04-14T17:17:26.260Z,15.30
2019-04-14T17:20:03.935Z,15.30
2019-04-14T17:22:39.711Z,15.20
2019-04-14T17:25:13.626Z,15.20
2019-04-14T17:27:45.264Z,15.20
2019-04-14T17:30:28.777Z,15.20
2019-04-14T17:33:17.158Z,15.20
2019-04-14T17:36:05.010Z,15.20
2019-04-14T17:38:42.345Z,15.40
2019-04-14T17:41:19.778Z,15.40
2019-04-14T17:43:51.298Z,15.50
2019-04-14T17:46:31.804Z,15.50
2019-04-14T17:49:07.075Z,15.40
2019-04-14T17:51:38.597Z,15.50
2019-04-14T17:54:28.349Z,15.50
2019-04-14T17:57:06.089Z,15.50
2019-04-14T17:59:44.550Z,15.50
2019-04-14T18:02:21.872Z,15.40
2019-04-14T18:05:02.568Z,15.40
2019-04-14T18:07:37.357Z,15.40
2019-04-14T18:10:09.106Z,15.50
2019-04-14T18:12:49.772Z,15.50
2019-04-14T18:15:21.232Z,15.40
2019-04-14T18:17:55.213Z,15.50
2019-04-14T18:20:29.353Z,15.50
2019-04-14T18:22:59.170Z,15.40
2019-04-14T18:25:29.080Z,15.40
2019-04-14T18:28:12.115Z,15.40
2019-04-14T18:30:43.600Z,15.30
2019-04-14T18:33:31.318Z,15.30
2019-04-14T18:36:14.323Z,15.30
2019-04-14T18:39:03.673Z,15.20
2019-04-14T18:41:52.397Z,15.30
2019-04-14T18:44:40.171Z,15.20
2019-04-14T18:47:11.714Z,15.20
2019-04-14T18:49:45.841Z,15.20
2019-04-14T18:52:29.378Z,15.20
2019-04-14T18:55:06.771Z,15.20
2019-04-14T18:57:38.230Z,15.20
2019-04-14T19:00:09.699Z,15.10
2019-04-14T19:02:40.703Z,15.10
2019-04-14T19:05:10.526Z,15.10
2019-04-14T19:07:40.361Z,15.00
2019-04-14T19:10:10.178Z,15.00
2019-04-14T19:12:41.994Z,15.00
2019-04-14T19:15:13.454Z,14.90
2019-04-14T19:17:56.846Z,14.90
2019-04-14T19:20:26.673Z,14.90
2019-04-14T19:22:56.488Z,15.10
2019-04-14T19:25:26.323Z,15.30
2019-04-14T19:27:56.222Z,15.60
2019-04-14T19:30:26.355Z,15.90
2019-04-14T19:32:56.246Z,16.10
2019-04-14T19:35:26.963Z,16.30
2019-04-14T19:37:57.347Z,16.40
2019-04-14T19:40:27.692Z,16.60
2019-04-14T19:42:57.514Z,16.60
2019-04-14T19:45:27.365Z,16.70
2019-04-14T19:47:57.258Z,16.80
2019-04-14T19:50:27.087Z,16.80
2019-04-14T19:52:56.906Z,16.90
2019-04-14T19:55:27.138Z,16.90
2019-04-14T19:57:57.034Z,16.90
2019-04-14T20:00:26.859Z,16.90
2019-04-14T20:02:57.093Z,16.90
2019-04-14T20:05:26.986Z,16.90
2019-04-14T20:07:56.809Z,17.00
2019-04-14T20:10:26.632Z,17.00
2019-04-14T20:12:56.517Z,17.00
2019-04-14T20:15:29.044Z,17.00
2019-04-14T20:20:45.631Z,17.00
2019-04-14T20:23:17.181Z,17.00
2019-04-14T20:26:05.034Z,17.00
2019-04-14T20:28:36.580Z,17.00
2019-04-14T20:31:08.111Z,17.00
2019-04-14T20:33:38.195Z,17.00
2019-04-14T20:36:08.023Z,17.00
2019-04-14T20:38:50.473Z,17.00
2019-04-14T20:41:20.375Z,17.00
2019-04-14T20:43:50.220Z,16.90
2019-04-14T20:46:20.043Z,17.00
2019-04-14T20:48:49.870Z,17.00
2019-04-14T20:51:20.156Z,16.90
2019-04-14T20:53:50.207Z,17.00
2019-04-14T20:56:20.057Z,16.90
2019-04-14T20:58:49.960Z,16.90
2019-04-14T21:01:21.123Z,16.90
2019-04-14T21:03:52.584Z,16.90
2019-04-14T21:06:54.333Z,16.90
2019-04-14T21:09:31.562Z,16.90
2019-04-14T21:12:05.713Z,16.90
2019-04-14T21:14:46.473Z,16.90
2019-04-14T21:20:10.473Z,16.90
2019-04-14T21:22:47.953Z,16.80
2019-04-14T21:25:19.413Z,16.90
2019-04-14T21:27:57.162Z,16.80
2019-04-14T21:30:31.410Z,16.80
2019-04-14T21:35:51.862Z,16.90
2019-04-14T21:38:39.327Z,16.90
2019-04-14T21:41:13.554Z,16.90
2019-04-14T21:43:43.366Z,16.90
2019-04-14T21:46:13.187Z,16.90
2019-04-14T21:48:43.010Z,16.80
2019-04-14T21:51:12.827Z,16.80
2019-04-14T21:53:43.119Z,16.80
2019-04-14T21:56:13.884Z,16.90
2019-04-14T21:59:02.086Z,16.90
2019-04-14T22:01:53.013Z,16.80
2019-04-14T22:04:41.014Z,16.80
2019-04-14T22:07:18.347Z,16.80
2019-04-14T22:09:49.263Z,16.80
2019-04-14T22:12:19.079Z,16.80
2019-04-14T22:14:49.962Z,16.80
2019-04-14T22:17:20.129Z,16.80
2019-04-14T22:19:49.946Z,16.80
2019-04-14T22:22:19.748Z,16.80
2019-04-14T22:24:49.557Z,16.70
2019-04-14T22:27:19.684Z,16.70
2019-04-14T22:29:49.506Z,16.70
2019-04-14T22:32:19.377Z,16.70
2019-04-14T22:34:49.530Z,16.70
2019-04-14T22:37:19.653Z,16.70
2019-04-14T22:39:49.530Z,16.70
2019-04-14T22:42:20.513Z,16.70
2019-04-14T22:44:50.732Z,16.70
2019-04-14T22:47:20.546Z,16.70
2019-04-14T22:49:50.358Z,16.70
2019-04-14T22:52:20.472Z,16.70
2019-04-14T22:54:50.355Z,16.70
2019-04-14T22:57:20.176Z,16.70
2019-04-14T22:59:50.056Z,16.70
2019-04-14T23:02:25.146Z,16.70
2019-04-14T23:07:58.911Z,16.70
2019-04-14T23:10:42.176Z,16.60
2019-04-14T23:13:19.519Z,16.60
2019-04-14T23:15:57.041Z,16.60
2019-04-14T23:18:29.515Z,16.60
2019-04-14T23:21:01.354Z,16.60
2019-04-14T23:23:32.853Z,16.60
2019-04-14T23:26:02.715Z,16.60
2019-04-14T23:28:32.566Z,16.60
2019-04-14T23:31:02.418Z,16.60
2019-04-14T23:33:32.313Z,16.60
2019-04-14T23:36:02.293Z,16.50
2019-04-14T23:38:32.130Z,16.50
2019-04-14T23:41:01.960Z,16.40
2019-04-14T23:43:31.850Z,16.30
2019-04-14T23:46:01.725Z,16.40
2019-04-14T23:48:31.611Z,16.40
2019-04-14T23:51:01.486Z,16.30
2019-04-14T23:53:31.382Z,16.40
2019-04-14T23:56:01.257Z,16.40
2019-04-14T23:58:31.070Z,16.30
